sensor_id;sensor_type;location;lat;lon;timestamp;pressure;altitude;pressure_sealevel;temperature;humidity
69836;BME280;57132;51.972;4.450;2023-03-20T00:00:44;101878.94;;;5.91;100.00
69836;BME280;57132;51.972;4.450;2023-03-20T00:03:11;101877.63;;;5.78;100.00
69836;BME280;57132;51.972;4.450;2023-03-20T00:05:37;101883.34;;;5.65;100.00
69836;BME280;57132;51.972;4.450;2023-03-20T00:08:02;101880.91;;;5.59;100.00
69836;BME280;57132;51.972;4.450;2023-03-20T00:10:40;101884.59;;;5.54;100.00
69836;BME280;57132;51.972;4.450;2023-03-20T00:13:11;101886.66;;;5.46;100.00
69836;BME280;57132;51.972;4.450;2023-03-20T00:15:42;101896.63;;;5.37;100.00
69836;BME280;57132;51.972;4.450;2023-03-20T00:18:16;101904.88;;;5.28;100.00
69836;BME280;57132;51.972;4.450;2023-03-20T00:20:46;101913.75;;;5.26;100.00
69836;BME280;57132;51.972;4.450;2023-03-20T00:23:12;101919.88;;;5.28;100.00
69836;BME280;57132;51.972;4.450;2023-03-20T00:25:39;101927.69;;;5.32;100.00
69836;BME280;57132;51.972;4.450;2023-03-20T00:30:42;101929.47;;;5.32;100.00
69836;BME280;57132;51.972;4.450;2023-03-20T00:33:08;101905.56;;;5.35;100.00
69836;BME280;57132;51.972;4.450;2023-03-20T00:35:34;101909.84;;;5.37;100.00
69836;BME280;57132;51.972;4.450;2023-03-20T00:38:00;101897.38;;;5.41;100.00
69836;BME280;57132;51.972;4.450;2023-03-20T00:40:29;101895.59;;;5.41;100.00
69836;BME280;57132;51.972;4.450;2023-03-20T00:43:00;101896.47;;;5.42;100.00
69836;BME280;57132;51.972;4.450;2023-03-20T00:45:27;101906.16;;;5.43;100.00
69836;BME280;57132;51.972;4.450;2023-03-20T00:47:54;101908.69;;;5.46;100.00
69836;BME280;57132;51.972;4.450;2023-03-20T00:50:26;101888.44;;;5.45;100.00
69836;BME280;57132;51.972;4.450;2023-03-20T00:52:54;101883.84;;;5.50;100.00
69836;BME280;57132;51.972;4.450;2023-03-20T00:55:21;101873.25;;;5.50;100.00
69836;BME280;57132;51.972;4.450;2023-03-20T00:57:53;101868.78;;;5.52;100.00
69836;BME280;57132;51.972;4.450;2023-03-20T01:00:23;101868.53;;;5.60;100.00
69836;BME280;57132;51.972;4.450;2023-03-20T01:02:54;101871.94;;;5.63;100.00
69836;BME280;57132;51.972;4.450;2023-03-20T01:05:21;101870.22;;;5.62;100.00
69836;BME280;57132;51.972;4.450;2023-03-20T01:07:46;101875.38;;;5.65;100.00
69836;BME280;57132;51.972;4.450;2023-03-20T01:10:12;101860.44;;;5.64;100.00
69836;BME280;57132;51.972;4.450;2023-03-20T01:12:39;101865.63;;;5.67;100.00
69836;BME280;57132;51.972;4.450;2023-03-20T01:15:18;101876.22;;;5.67;100.00
69836;BME280;57132;51.972;4.450;2023-03-20T01:17:44;101885.88;;;5.68;100.00
69836;BME280;57132;51.972;4.450;2023-03-20T01:20:20;101894.78;;;5.66;100.00
69836;BME280;57132;51.972;4.450;2023-03-20T01:22:46;101920.66;;;5.58;100.00
69836;BME280;57132;51.972;4.450;2023-03-20T01:25:11;101924.41;;;5.52;100.00
69836;BME280;57132;51.972;4.450;2023-03-20T01:27:37;101926.34;;;5.47;100.00
69836;BME280;57132;51.972;4.450;2023-03-20T01:30:03;101928.38;;;5.39;100.00
69836;BME280;57132;51.972;4.450;2023-03-20T01:32:30;101940.75;;;5.37;100.00
69836;BME280;57132;51.972;4.450;2023-03-20T01:34:56;101930.38;;;5.31;100.00
69836;BME280;57132;51.972;4.450;2023-03-20T01:37:24;101932.19;;;5.29;100.00
69836;BME280;57132;51.972;4.450;2023-03-20T01:39:50;101928.69;;;5.28;100.00
69836;BME280;57132;51.972;4.450;2023-03-20T01:42:16;101924.97;;;5.34;100.00
69836;BME280;57132;51.972;4.450;2023-03-20T01:44:42;101922.16;;;5.40;100.00
69836;BME280;57132;51.972;4.450;2023-03-20T01:47:14;101921.03;;;5.47;100.00
69836;BME280;57132;51.972;4.450;2023-03-20T01:50:11;101921.69;;;5.54;100.00
69836;BME280;57132;51.972;4.450;2023-03-20T01:52:42;101907.44;;;5.58;100.00
69836;BME280;57132;51.972;4.450;2023-03-20T01:55:07;101907.34;;;5.61;100.00
69836;BME280;57132;51.972;4.450;2023-03-20T01:57:33;101908.09;;;5.64;100.00
69836;BME280;57132;51.972;4.450;2023-03-20T02:00:32;101911.59;;;5.66;100.00
69836;BME280;57132;51.972;4.450;2023-03-20T02:02:50;101905.25;;;5.71;100.00
69836;BME280;57132;51.972;4.450;2023-03-20T02:05:18;101904.25;;;5.75;100.00
69836;BME280;57132;51.972;4.450;2023-03-20T02:07:50;101902.44;;;5.75;100.00
69836;BME280;57132;51.972;4.450;2023-03-20T02:10:18;101891.84;;;5.75;100.00
69836;BME280;57132;51.972;4.450;2023-03-20T02:12:44;101883.16;;;5.72;100.00
69836;BME280;57132;51.972;4.450;2023-03-20T02:15:13;101876.13;;;5.71;100.00
69836;BME280;57132;51.972;4.450;2023-03-20T02:17:40;101868.94;;;5.74;100.00
69836;BME280;57132;51.972;4.450;2023-03-20T02:26:10;101859.50;;;5.65;100.00
69836;BME280;57132;51.972;4.450;2023-03-20T02:42:14;101862.16;;;5.65;100.00
69836;BME280;57132;51.972;4.450;2023-03-20T02:45:03;101868.44;;;5.63;100.00
69836;BME280;57132;51.972;4.450;2023-03-20T02:51:04;101860.31;;;5.67;100.00
69836;BME280;57132;51.972;4.450;2023-03-20T02:54:00;101866.59;;;5.65;100.00
69836;BME280;57132;51.972;4.450;2023-03-20T02:57:03;101857.72;;;5.66;100.00
69836;BME280;57132;51.972;4.450;2023-03-20T03:00:19;101850.59;;;5.68;100.00
69836;BME280;57132;51.972;4.450;2023-03-20T03:02:19;101852.28;;;5.71;100.00
69836;BME280;57132;51.972;4.450;2023-03-20T03:04:56;101847.88;;;5.70;100.00
69836;BME280;57132;51.972;4.450;2023-03-20T03:07:25;101847.88;;;5.70;100.00
69836;BME280;57132;51.972;4.450;2023-03-20T03:10:02;101842.47;;;5.73;100.00
69836;BME280;57132;51.972;4.450;2023-03-20T03:12:34;101835.47;;;5.72;100.00
69836;BME280;57132;51.972;4.450;2023-03-20T03:15:05;101830.97;;;5.74;100.00
69836;BME280;57132;51.972;4.450;2023-03-20T03:17:36;101833.56;;;5.75;100.00
69836;BME280;57132;51.972;4.450;2023-03-20T03:20:05;101825.72;;;5.72;100.00
69836;BME280;57132;51.972;4.450;2023-03-20T03:22:34;101822.97;;;5.75;100.00
69836;BME280;57132;51.972;4.450;2023-03-20T03:25:00;101820.25;;;5.77;100.00
69836;BME280;57132;51.972;4.450;2023-03-20T03:27:34;101825.63;;;5.75;100.00
69836;BME280;57132;51.972;4.450;2023-03-20T03:30:10;101823.00;;;5.74;100.00
69836;BME280;57132;51.972;4.450;2023-03-20T03:32:50;101813.34;;;5.73;100.00
69836;BME280;57132;51.972;4.450;2023-03-20T03:35:21;101814.38;;;5.68;100.00
69836;BME280;57132;51.972;4.450;2023-03-20T03:40:48;101811.78;;;5.67;100.00
69836;BME280;57132;51.972;4.450;2023-03-20T03:43:27;101809.19;;;5.65;100.00
69836;BME280;57132;51.972;4.450;2023-03-20T03:45:59;101809.25;;;5.64;100.00
69836;BME280;57132;51.972;4.450;2023-03-20T03:48:39;101806.59;;;5.64;100.00
69836;BME280;57132;51.972;4.450;2023-03-20T03:51:11;101802.22;;;5.63;100.00
69836;BME280;57132;51.972;4.450;2023-03-20T03:53:43;101802.31;;;5.60;100.00
69836;BME280;57132;51.972;4.450;2023-03-20T03:56:15;101805.81;;;5.60;100.00
69836;BME280;57132;51.972;4.450;2023-03-20T03:58:48;101799.66;;;5.60;100.00
69836;BME280;57132;51.972;4.450;2023-03-20T04:01:16;101798.72;;;5.62;100.00
69836;BME280;57132;51.972;4.450;2023-03-20T04:03:49;101793.41;;;5.62;100.00
69836;BME280;57132;51.972;4.450;2023-03-20T04:06:16;101784.47;;;5.65;100.00
69836;BME280;57132;51.972;4.450;2023-03-20T04:08:42;101787.09;;;5.66;100.00
69836;BME280;57132;51.972;4.450;2023-03-20T04:11:14;101795.03;;;5.66;100.00
69836;BME280;57132;51.972;4.450;2023-03-20T04:13:40;101795.13;;;5.63;100.00
69836;BME280;57132;51.972;4.450;2023-03-20T04:16:17;101788.06;;;5.64;100.00
69836;BME280;57132;51.972;4.450;2023-03-20T04:18:43;101792.50;;;5.63;100.00
69836;BME280;57132;51.972;4.450;2023-03-20T04:21:10;101795.03;;;5.66;100.00
69836;BME280;57132;51.972;4.450;2023-03-20T04:23:36;101799.44;;;5.66;100.00
69836;BME280;57132;51.972;4.450;2023-03-20T04:26:02;101803.00;;;5.65;100.00
69836;BME280;57132;51.972;4.450;2023-03-20T04:28:27;101807.50;;;5.63;100.00
69836;BME280;57132;51.972;4.450;2023-03-20T04:30:54;101799.56;;;5.63;100.00
69836;BME280;57132;51.972;4.450;2023-03-20T04:33:21;101803.09;;;5.63;100.00
69836;BME280;57132;51.972;4.450;2023-03-20T04:35:46;101797.78;;;5.63;100.00
69836;BME280;57132;51.972;4.450;2023-03-20T04:38:12;101795.94;;;5.65;100.00
69836;BME280;57132;51.972;4.450;2023-03-20T04:40:38;101785.34;;;5.65;100.00
69836;BME280;57132;51.972;4.450;2023-03-20T04:43:03;101788.84;;;5.66;100.00
69836;BME280;57132;51.972;4.450;2023-03-20T04:45:29;101786.16;;;5.67;100.00
69836;BME280;57132;51.972;4.450;2023-03-20T04:47:54;101773.84;;;5.66;100.00
69836;BME280;57132;51.972;4.450;2023-03-20T04:50:19;101771.22;;;5.65;100.00
69836;BME280;57132;51.972;4.450;2023-03-20T04:52:45;101762.31;;;5.67;100.00
69836;BME280;57132;51.972;4.450;2023-03-20T04:55:10;101764.97;;;5.67;100.00
69836;BME280;57132;51.972;4.450;2023-03-20T04:57:36;101755.13;;;5.71;100.00
69836;BME280;57132;51.972;4.450;2023-03-20T05:00:02;101754.22;;;5.72;100.00
69836;BME280;57132;51.972;4.450;2023-03-20T05:02:28;101756.78;;;5.74;100.00
69836;BME280;57132;51.972;4.450;2023-03-20T05:04:54;101760.94;;;5.81;100.00
69836;BME280;57132;51.972;4.450;2023-03-20T05:07:20;101753.94;;;5.80;100.00
69836;BME280;57132;51.972;4.450;2023-03-20T05:09:45;101752.06;;;5.82;100.00
69836;BME280;57132;51.972;4.450;2023-03-20T05:12:11;101747.66;;;5.82;100.00
69836;BME280;57132;51.972;4.450;2023-03-20T05:14:37;101750.34;;;5.81;100.00
69836;BME280;57132;51.972;4.450;2023-03-20T05:17:03;101760.91;;;5.82;100.00
69836;BME280;57132;51.972;4.450;2023-03-20T05:19:28;101767.06;;;5.83;100.00
69836;BME280;57132;51.972;4.450;2023-03-20T05:21:53;101758.28;;;5.82;100.00
69836;BME280;57132;51.972;4.450;2023-03-20T05:24:19;101761.81;;;5.81;100.00
69836;BME280;57132;51.972;4.450;2023-03-20T05:26:45;101761.81;;;5.81;100.00
69836;BME280;57132;51.972;4.450;2023-03-20T05:29:11;101769.75;;;5.81;100.00
69836;BME280;57132;51.972;4.450;2023-03-20T05:31:36;101766.22;;;5.82;100.00
69836;BME280;57132;51.972;4.450;2023-03-20T05:34:02;101765.38;;;5.80;100.00
69836;BME280;57132;51.972;4.450;2023-03-20T05:36:27;101768.03;;;5.80;100.00
69836;BME280;57132;51.972;4.450;2023-03-20T05:38:53;101764.53;;;5.80;100.00
69836;BME280;57132;51.972;4.450;2023-03-20T05:41:18;101779.50;;;5.81;100.00
69836;BME280;57132;51.972;4.450;2023-03-20T05:43:43;101777.72;;;5.81;100.00
69836;BME280;57132;51.972;4.450;2023-03-20T05:46:09;101766.25;;;5.81;100.00
69836;BME280;57132;51.972;4.450;2023-03-20T05:48:35;101768.78;;;5.84;100.00
69836;BME280;57132;51.972;4.450;2023-03-20T05:51:01;101769.72;;;5.83;100.00
69836;BME280;57132;51.972;4.450;2023-03-20T05:53:27;101771.34;;;5.87;100.00
69836;BME280;57132;51.972;4.450;2023-03-20T05:55:52;101763.31;;;5.88;100.00
69836;BME280;57132;51.972;4.450;2023-03-20T05:58:17;101782.69;;;5.90;100.00
69836;BME280;57132;51.972;4.450;2023-03-20T06:00:43;101779.19;;;5.90;100.00
69836;BME280;57132;51.972;4.450;2023-03-20T06:03:08;101795.09;;;5.90;100.00
69836;BME280;57132;51.972;4.450;2023-03-20T06:05:34;101787.06;;;5.91;100.00
69836;BME280;57132;51.972;4.450;2023-03-20T06:08:01;101786.06;;;5.96;100.00
69836;BME280;57132;51.972;4.450;2023-03-20T06:10:26;101792.13;;;5.99;100.00
69836;BME280;57132;51.972;4.450;2023-03-20T06:12:54;101793.09;;;5.97;100.00
69836;BME280;57132;51.972;4.450;2023-03-20T06:15:20;101804.56;;;5.97;100.00
69836;BME280;57132;51.972;4.450;2023-03-20T06:17:46;101800.06;;;5.99;100.00
69836;BME280;57132;51.972;4.450;2023-03-20T06:20:11;101806.94;;;6.05;100.00
69836;BME280;57132;51.972;4.450;2023-03-20T06:22:37;101802.47;;;6.05;100.00
69836;BME280;57132;51.972;4.450;2023-03-20T06:25:03;101806.03;;;6.06;100.00
69836;BME280;57132;51.972;4.450;2023-03-20T06:27:29;101810.34;;;6.08;100.00
69836;BME280;57132;51.972;4.450;2023-03-20T06:29:55;101814.59;;;6.12;100.00
69836;BME280;57132;51.972;4.450;2023-03-20T06:32:21;101813.81;;;6.10;100.00
69836;BME280;57132;51.972;4.450;2023-03-20T06:34:46;101818.19;;;6.11;100.00
69836;BME280;57132;51.972;4.450;2023-03-20T06:37:12;101820.72;;;6.14;100.00
69836;BME280;57132;51.972;4.450;2023-03-20T06:39:38;101809.41;;;6.09;100.00
69836;BME280;57132;51.972;4.450;2023-03-20T06:42:03;101816.38;;;6.12;100.00
69836;BME280;57132;51.972;4.450;2023-03-20T06:44:29;101821.75;;;6.10;100.00
69836;BME280;57132;51.972;4.450;2023-03-20T06:46:54;101819.91;;;6.12;100.00
69836;BME280;57132;51.972;4.450;2023-03-20T06:49:20;101819.91;;;6.12;100.00
69836;BME280;57132;51.972;4.450;2023-03-20T06:51:46;101826.03;;;6.14;100.00
69836;BME280;57132;51.972;4.450;2023-03-20T06:54:12;101821.59;;;6.15;100.00
69836;BME280;57132;51.972;4.450;2023-03-20T06:56:38;101826.94;;;6.13;100.00
69836;BME280;57132;51.972;4.450;2023-03-20T06:59:03;101826.06;;;6.13;100.00
69836;BME280;57132;51.972;4.450;2023-03-20T07:01:29;101818.06;;;6.14;100.00
69836;BME280;57132;51.972;4.450;2023-03-20T07:03:54;101823.25;;;6.18;100.00
69836;BME280;57132;51.972;4.450;2023-03-20T07:06:19;101828.50;;;6.19;100.00
69836;BME280;57132;51.972;4.450;2023-03-20T07:08:45;101829.25;;;6.23;100.00
69836;BME280;57132;51.972;4.450;2023-03-20T07:11:11;101827.28;;;6.28;100.00
69836;BME280;57132;51.972;4.450;2023-03-20T07:13:36;101824.53;;;6.31;100.00
69836;BME280;57132;51.972;4.450;2023-03-20T07:16:02;101822.38;;;6.40;100.00
69836;BME280;57132;51.972;4.450;2023-03-20T07:18:28;101834.56;;;6.46;100.00
69836;BME280;57132;51.972;4.450;2023-03-20T07:20:59;101825.56;;;6.50;100.00
69836;BME280;57132;51.972;4.450;2023-03-20T07:23:27;101822.00;;;6.51;100.00
69836;BME280;57132;51.972;4.450;2023-03-20T07:25:52;101825.41;;;6.55;100.00
69836;BME280;57132;51.972;4.450;2023-03-20T07:28:17;101835.94;;;6.56;100.00
69836;BME280;57132;51.972;4.450;2023-03-20T07:30:43;101830.59;;;6.58;100.00
69836;BME280;57132;51.972;4.450;2023-03-20T07:33:08;101844.81;;;6.55;100.00
69836;BME280;57132;51.972;4.450;2023-03-20T07:35:34;101839.75;;;6.49;100.00
69836;BME280;57132;51.972;4.450;2023-03-20T07:38:00;101843.28;;;6.50;100.00
69836;BME280;57132;51.972;4.450;2023-03-20T07:40:25;101844.19;;;6.49;100.00
69836;BME280;57132;51.972;4.450;2023-03-20T07:42:51;101847.00;;;6.44;100.00
69836;BME280;57132;51.972;4.450;2023-03-20T07:45:17;101855.16;;;6.39;100.00
69836;BME280;57132;51.972;4.450;2023-03-20T07:47:43;101852.56;;;6.38;100.00
69836;BME280;57132;51.972;4.450;2023-03-20T07:50:09;101830.59;;;6.34;100.00
69836;BME280;57132;51.972;4.450;2023-03-20T07:52:35;101850.06;;;6.33;100.00
69836;BME280;57132;51.972;4.450;2023-03-20T07:55:00;101849.38;;;6.28;100.00
69836;BME280;57132;51.972;4.450;2023-03-20T07:57:26;101852.19;;;6.24;100.00
69836;BME280;57132;51.972;4.450;2023-03-20T07:59:51;101844.22;;;6.24;100.00
69836;BME280;57132;51.972;4.450;2023-03-20T08:02:17;101851.34;;;6.23;100.00
69836;BME280;57132;51.972;4.450;2023-03-20T08:04:43;101856.81;;;6.19;100.00
69836;BME280;57132;51.972;4.450;2023-03-20T08:07:09;101848.88;;;6.17;100.00
69836;BME280;57132;51.972;4.450;2023-03-20T08:09:35;101843.59;;;6.17;100.00
69836;BME280;57132;51.972;4.450;2023-03-20T08:12:01;101851.59;;;6.15;100.00
69836;BME280;57132;51.972;4.450;2023-03-20T08:14:26;101847.44;;;6.08;100.00
69836;BME280;57132;51.972;4.450;2023-03-20T08:16:51;101847.50;;;6.07;100.00
69836;BME280;57132;51.972;4.450;2023-03-20T08:19:17;101845.63;;;6.10;100.00
69836;BME280;57132;51.972;4.450;2023-03-20T08:21:42;101839.38;;;6.11;100.00
69836;BME280;57132;51.972;4.450;2023-03-20T08:24:08;101840.03;;;6.18;100.00
69836;BME280;57132;51.972;4.450;2023-03-20T08:26:33;101841.59;;;6.24;100.00
69836;BME280;57132;51.972;4.450;2023-03-20T08:28:59;101835.31;;;6.26;100.00
69836;BME280;57132;51.972;4.450;2023-03-20T08:31:24;101836.94;;;6.30;100.00
69836;BME280;57132;51.972;4.450;2023-03-20T08:33:50;101827.09;;;6.34;100.00
69836;BME280;57132;51.972;4.450;2023-03-20T08:36:16;101842.91;;;6.35;100.00
69836;BME280;57132;51.972;4.450;2023-03-20T08:38:44;101827.84;;;6.37;100.00
69836;BME280;57132;51.972;4.450;2023-03-20T08:41:10;101828.41;;;6.46;100.00
69836;BME280;57132;51.972;4.450;2023-03-20T08:43:36;101835.03;;;6.57;100.00
69836;BME280;57132;51.972;4.450;2023-03-20T08:46:01;101821.03;;;6.54;100.00
69836;BME280;57132;51.972;4.450;2023-03-20T08:48:27;101848.44;;;6.53;100.00
69836;BME280;57132;51.972;4.450;2023-03-20T08:50:52;101836.88;;;6.55;100.00
69836;BME280;57132;51.972;4.450;2023-03-20T08:53:17;101835.19;;;6.53;100.00
69836;BME280;57132;51.972;4.450;2023-03-20T08:55:50;101828.16;;;6.52;100.00
69836;BME280;57132;51.972;4.450;2023-03-20T08:58:16;101820.19;;;6.52;100.00
69836;BME280;57132;51.972;4.450;2023-03-20T09:00:42;101824.53;;;6.54;100.00
69836;BME280;57132;51.972;4.450;2023-03-20T09:03:16;101827.75;;;6.62;100.00
69836;BME280;57132;51.972;4.450;2023-03-20T09:05:45;101823.50;;;6.58;100.00
69836;BME280;57132;51.972;4.450;2023-03-20T09:08:12;101834.56;;;6.70;100.00
69836;BME280;57132;51.972;4.450;2023-03-20T09:10:37;101823.94;;;6.70;100.00
69836;BME280;57132;51.972;4.450;2023-03-20T09:13:05;101824.75;;;6.72;100.00
69836;BME280;57132;51.972;4.450;2023-03-20T09:15:30;101826.53;;;6.71;100.00
69836;BME280;57132;51.972;4.450;2023-03-20T09:17:55;101832.47;;;6.78;100.00
69836;BME280;57132;51.972;4.450;2023-03-20T09:20:21;101830.88;;;6.74;100.00
69836;BME280;57132;51.972;4.450;2023-03-20T09:22:46;101825.84;;;6.66;100.00
69836;BME280;57132;51.972;4.450;2023-03-20T09:25:12;101844.75;;;6.57;100.00
69836;BME280;57132;51.972;4.450;2023-03-20T09:27:38;101824.09;;;6.65;100.00
69836;BME280;57132;51.972;4.450;2023-03-20T09:30:05;101829.81;;;6.78;100.00
69836;BME280;57132;51.972;4.450;2023-03-20T09:32:33;101832.44;;;7.01;100.00
69836;BME280;57132;51.972;4.450;2023-03-20T09:34:59;101835.44;;;7.14;100.00
69836;BME280;57132;51.972;4.450;2023-03-20T09:37:25;101823.34;;;7.29;100.00
69836;BME280;57132;51.972;4.450;2023-03-20T09:39:50;101829.94;;;7.19;100.00
69836;BME280;57132;51.972;4.450;2023-03-20T09:51:42;101835.03;;;7.25;100.00
69836;BME280;57132;51.972;4.450;2023-03-20T09:54:23;101844.41;;;7.33;100.00
69836;BME280;57132;51.972;4.450;2023-03-20T09:56:50;101833.16;;;7.27;100.00
69836;BME280;57132;51.972;4.450;2023-03-20T09:59:18;101845.50;;;7.28;100.00
69836;BME280;57132;51.972;4.450;2023-03-20T10:01:51;101835.41;;;7.36;100.00
69836;BME280;57132;51.972;4.450;2023-03-20T10:04:16;101825.22;;;7.47;100.00
69836;BME280;57132;51.972;4.450;2023-03-20T10:06:42;101835.53;;;7.55;100.00
69836;BME280;57132;51.972;4.450;2023-03-20T10:09:21;101837.56;;;7.48;100.00
69836;BME280;57132;51.972;4.450;2023-03-20T10:17:44;101839.00;;;7.57;100.00
69836;BME280;57132;51.972;4.450;2023-03-20T10:22:42;101828.59;;;7.51;100.00
69836;BME280;57132;51.972;4.450;2023-03-20T10:27:56;101832.00;;;7.54;100.00
69836;BME280;57132;51.972;4.450;2023-03-20T10:33:06;101833.31;;;7.44;100.00
69836;BME280;57132;51.972;4.450;2023-03-20T10:40:32;101819.75;;;7.30;100.00
69836;BME280;57132;51.972;4.450;2023-03-20T10:43:09;101811.91;;;7.27;100.00
69836;BME280;57132;51.972;4.450;2023-03-20T10:45:48;101815.81;;;7.18;100.00
69836;BME280;57132;51.972;4.450;2023-03-20T10:48:20;101806.13;;;7.17;100.00
69836;BME280;57132;51.972;4.450;2023-03-20T10:50:51;101803.16;;;7.25;100.00
69836;BME280;57132;51.972;4.450;2023-03-20T10:53:39;101809.91;;;7.32;100.00
69836;BME280;57132;51.972;4.450;2023-03-20T10:56:09;101802.66;;;7.37;100.00
69836;BME280;57132;51.972;4.450;2023-03-20T10:58:39;101803.03;;;7.48;100.00
69836;BME280;57132;51.972;4.450;2023-03-20T11:01:06;101787.91;;;7.50;100.00
69836;BME280;57132;51.972;4.450;2023-03-20T11:03:32;101790.44;;;7.53;100.00
69836;BME280;57132;51.972;4.450;2023-03-20T11:06:04;101788.63;;;7.54;100.00
69836;BME280;57132;51.972;4.450;2023-03-20T11:08:40;101780.59;;;7.55;100.00
69836;BME280;57132;51.972;4.450;2023-03-20T11:11:06;101782.13;;;7.61;100.00
69836;BME280;57132;51.972;4.450;2023-03-20T11:13:32;101780.25;;;7.63;100.00
69836;BME280;57132;51.972;4.450;2023-03-20T11:16:09;101784.59;;;7.66;100.00
69836;BME280;57132;51.972;4.450;2023-03-20T11:18:35;101782.47;;;7.74;100.00
69836;BME280;57132;51.972;4.450;2023-03-20T11:21:01;101776.16;;;7.76;100.00
69836;BME280;57132;51.972;4.450;2023-03-20T11:23:29;101776.69;;;7.84;100.00
69836;BME280;57132;51.972;4.450;2023-03-20T11:26:04;101771.53;;;7.80;100.00
69836;BME280;57132;51.972;4.450;2023-03-20T11:28:37;101775.81;;;7.84;100.00
69836;BME280;57132;51.972;4.450;2023-03-20T11:31:06;101777.47;;;7.86;100.00
69836;BME280;57132;51.972;4.450;2023-03-20T11:33:43;101799.78;;;7.82;100.00
69836;BME280;57132;51.972;4.450;2023-03-20T11:36:30;101772.59;;;7.76;100.00
69836;BME280;57132;51.972;4.450;2023-03-20T11:39:05;101779.66;;;7.77;100.00
69836;BME280;57132;51.972;4.450;2023-03-20T11:41:31;101778.34;;;7.67;100.00
69836;BME280;57132;51.972;4.450;2023-03-20T11:43:56;101781.06;;;7.65;100.00
69836;BME280;57132;51.972;4.450;2023-03-20T11:46:23;101780.88;;;7.70;100.00
69836;BME280;57132;51.972;4.450;2023-03-20T11:49:14;101783.84;;;7.62;100.00
69836;BME280;57132;51.972;4.450;2023-03-20T11:51:43;101783.41;;;7.52;100.00
69836;BME280;57132;51.972;4.450;2023-03-20T11:54:15;101777.72;;;7.60;100.00
69836;BME280;57132;51.972;4.450;2023-03-20T11:56:59;101779.28;;;7.45;100.00
69836;BME280;57132;51.972;4.450;2023-03-20T11:59:29;101774.94;;;7.43;100.00
69836;BME280;57132;51.972;4.450;2023-03-20T12:01:57;101784.84;;;7.39;100.00
69836;BME280;57132;51.972;4.450;2023-03-20T12:04:36;101781.56;;;7.32;100.00
69836;BME280;57132;51.972;4.450;2023-03-20T12:09:47;101777.94;;;7.35;100.00
69836;BME280;57132;51.972;4.450;2023-03-20T12:14:55;101757.53;;;7.35;100.00
69836;BME280;57132;51.972;4.450;2023-03-20T12:18:10;101760.69;;;7.45;100.00
69836;BME280;57132;51.972;4.450;2023-03-20T12:23:01;101757.41;;;7.38;100.00
69836;BME280;57132;51.972;4.450;2023-03-20T12:25:50;101752.97;;;7.39;100.00
69836;BME280;57132;51.972;4.450;2023-03-20T12:28:38;101759.94;;;7.42;100.00
69836;BME280;57132;51.972;4.450;2023-03-20T12:34:17;101747.41;;;7.45;100.00
69836;BME280;57132;51.972;4.450;2023-03-20T12:36:49;101747.53;;;7.42;100.00
69836;BME280;57132;51.972;4.450;2023-03-20T12:39:19;101751.84;;;7.45;100.00
69836;BME280;57132;51.972;4.450;2023-03-20T12:45:26;101749.25;;;7.43;100.00
69836;BME280;57132;51.972;4.450;2023-03-20T12:47:38;101745.84;;;7.39;100.00
69836;BME280;57132;51.972;4.450;2023-03-20T12:50:30;101750.25;;;7.41;100.00
69836;BME280;57132;51.972;4.450;2023-03-20T13:01:11;101732.84;;;7.33;100.00
69836;BME280;57132;51.972;4.450;2023-03-20T13:03:59;101737.03;;;7.39;100.00
69836;BME280;57132;51.972;4.450;2023-03-20T13:20:20;101723.41;;;7.47;100.00
69836;BME280;57132;51.972;4.450;2023-03-20T13:37:31;101712.25;;;7.59;100.00
69836;BME280;57132;51.972;4.450;2023-03-20T13:43:01;101715.19;;;7.53;100.00
69836;BME280;57132;51.972;4.450;2023-03-20T13:45:37;101700.03;;;7.55;100.00
69836;BME280;57132;51.972;4.450;2023-03-20T13:48:31;101697.97;;;7.61;100.00
69836;BME280;57132;51.972;4.450;2023-03-20T13:56:22;101707.22;;;7.53;100.00
69836;BME280;57132;51.972;4.450;2023-03-20T13:59:00;101708.09;;;7.53;100.00
69836;BME280;57132;51.972;4.450;2023-03-20T14:04:16;101697.03;;;7.62;100.00
69836;BME280;57132;51.972;4.450;2023-03-20T14:06:50;101704.22;;;7.60;100.00
69836;BME280;57132;51.972;4.450;2023-03-20T14:09:32;101693.59;;;7.60;100.00
69836;BME280;57132;51.972;4.450;2023-03-20T14:12:04;101700.75;;;7.58;100.00
69836;BME280;57132;51.972;4.450;2023-03-20T14:14:38;101696.09;;;7.63;100.00
69836;BME280;57132;51.972;4.450;2023-03-20T14:17:31;101690.66;;;7.67;100.00
69836;BME280;57132;51.972;4.450;2023-03-20T14:20:09;101681.09;;;7.62;100.00
69836;BME280;57132;51.972;4.450;2023-03-20T14:22:38;101702.34;;;7.62;100.00
69836;BME280;57132;51.972;4.450;2023-03-20T14:25:07;101681.81;;;7.66;100.00
69836;BME280;57132;51.972;4.450;2023-03-20T14:27:35;101700.28;;;7.69;100.00
69836;BME280;57132;51.972;4.450;2023-03-20T14:35:40;101683.41;;;7.70;100.00
69836;BME280;57132;51.972;4.450;2023-03-20T14:38:26;101674.66;;;7.68;100.00
69836;BME280;57132;51.972;4.450;2023-03-20T14:41:25;101682.41;;;7.73;100.00
69836;BME280;57132;51.972;4.450;2023-03-20T14:46:57;101686.34;;;7.83;100.00
69836;BME280;57132;51.972;4.450;2023-03-20T14:49:46;101679.41;;;7.80;100.00
69836;BME280;57132;51.972;4.450;2023-03-20T14:54:41;101676.19;;;7.93;100.00
69836;BME280;57132;51.972;4.450;2023-03-20T14:57:18;101675.25;;;7.94;100.00
69836;BME280;57132;51.972;4.450;2023-03-20T14:59:50;101679.75;;;7.92;100.00
69836;BME280;57132;51.972;4.450;2023-03-20T15:02:34;101661.94;;;7.94;100.00
69836;BME280;57132;51.972;4.450;2023-03-20T15:05:01;101691.06;;;7.97;100.00
69836;BME280;57132;51.972;4.450;2023-03-20T15:07:29;101676.00;;;7.96;100.00
69836;BME280;57132;51.972;4.450;2023-03-20T15:09:57;101660.16;;;7.94;100.00
69836;BME280;57132;51.972;4.450;2023-03-20T15:12:26;101669.84;;;7.95;100.00